Aviation Digital Data Service (ADDS)

Output produced by METARs form (1009 UTC 24 March 2017)
found at http://www.aviationweather.gov/adds/metars/
 
LPAZ 241000Z 03008KT 9999 FEW018 BKN032 14/09 Q1032
TAF LPAZ 240500Z 2406/2512 03010KT 9999 SCT025 
     TEMPO 2406/2506 FEW025 BKN035 
     BECMG 2418/2421 34010KT 
     BECMG 2506/2509 26010KT SCT012 BKN025
       
LPBJ 241000Z 29005KT 230V340 9999 SCT018 09/05 Q1015
TAF LPBJ 240503Z 2406/2506 28005KT 9999 SCT030 
     PROB40 2406/2408 2000 BR 
     TEMPO 2411/2419 6000 SHRA FEW020CB BKN022 
     PROB40 
     TEMPO 2413/2418 28012G22KT 2500 +TSRAGS BKN015 SCT018CB 
     BECMG 2418/2420 18010KT 
     TEMPO 2421/2506 4000 RA BKN012
       
LPCS 241000Z 34007KT 310V010 9999 SCT018 FEW022CB 09/06 Q1015
LPFL 241000Z VRB02KT 9999 FEW012 17/14 Q1031
LPFR 241000Z VRB03KT 9999 FEW018 12/05 Q1015
TAF LPFR 240500Z 2406/2506 34005KT 9999 SCT020 
     PROB40 
     TEMPO 2406/2424 8000 SHRA BKN018 FEW020CB 
     BECMG 2410/2413 24010KT FEW030 
     BECMG 2417/2420 VRB03KT 
     BECMG 2503/2506 26010KT
       
LPHR 241000Z 09005KT 9999 FEW018 BKN030 15/09 Q1032
TAF LPHR 240800Z 2409/2418 VRB05KT 9999 FEW020 BKN030 
     TEMPO 2409/2418 SCT020 
     BECMG 2412/2415 25008KT
       
LPLA 241000Z 26003KT 9999 OVC030 14/10 Q1033
TAF LPLA 240525Z 2406/2506 VRB05KT SCT025 
     TEMPO 2406/2418 BKN025 
     BECMG 2418/2420 BKN018 
     PROB40 
     TEMPO 2422/2506 30010KT 6000 -RADZ SCT013 BKN016
       
LPMA 241000Z 01014G24KT 330V060 9999 BKN015 15/07 Q1023
TAF LPMA 240500Z 2406/2506 01013KT 9999 SCT015 
     TEMPO 2406/2418 01018G30KT BKN015 
     BECMG 2500/2503 VRB05KT
       
LPPD 241000Z 03008KT 350V070 9999 FEW022 14/08 Q1032
TAF LPPD 240500Z 2406/2506 VRB05KT 9999 FEW020 BKN035 
     TEMPO 2406/2424 SCT020 
     BECMG 2415/2418 34008KT 
     BECMG 2500/2503 SCT012 BKN025
       
LPPR 241000Z 14006KT 100V160 CAVOK 07/05 Q1014
TAF LPPR 240500Z 2406/2506 VRB03KT 9999 FEW030 
     TEMPO 2406/2418 8000 SHRA BKN015 FEW020CB 
     BECMG 2409/2412 19008KT 
     BECMG 2415/2418 09010KT 
     BECMG 2500/2503 VRB03KT
       
LPPS 241000Z 01016KT 9999 SCT015 15/07 Q1023
TAF LPPS 240500Z 2406/2512 36015KT 9999 SCT015 
     PROB30 
     TEMPO 2406/2418 36018G28KT 
     BECMG 2506/2609 27010KT
       
LPPT 241000Z 31008KT 270V340 9999 SCT026 FEW030CB 10/05 Q1015
TAF LPPT 240500Z 2406/2512 33007KT 9999 SCT035 
     TEMPO 2406/2421 8000 SHRA BKN015 FEW025CB 
     PROB30 
     TEMPO 2412/2418 3000 TSRAGS SCT020CB 
     BECMG 2412/2415 26010KT 
     BECMG 2421/2424 15008KT SCT012 
     TEMPO 2500/2509 VRB03KT 5000 BR BKN005
       
LPBJ 241000Z 29005KT 230V340 9999 SCT018 09/05 Q1015
TAF LPBJ 240503Z 2406/2506 28005KT 9999 SCT030 
     PROB40 2406/2408 2000 BR 
     TEMPO 2411/2419 6000 SHRA FEW020CB BKN022 
     PROB40 
     TEMPO 2413/2418 28012G22KT 2500 +TSRAGS BKN015 SCT018CB 
     BECMG 2418/2420 18010KT 
     TEMPO 2421/2506 4000 RA BKN012
       
LPCS 241000Z 34007KT 310V010 9999 SCT018 FEW022CB 09/06 Q1015
LPFR 241000Z VRB03KT 9999 FEW018 12/05 Q1015
TAF LPFR 240500Z 2406/2506 34005KT 9999 SCT020 
     PROB40 
     TEMPO 2406/2424 8000 SHRA BKN018 FEW020CB 
     BECMG 2410/2413 24010KT FEW030 
     BECMG 2417/2420 VRB03KT 
     BECMG 2503/2506 26010KT
       
LPFL 241000Z VRB02KT 9999 FEW012 17/14 Q1031
LPHR 241000Z 09005KT 9999 FEW018 BKN030 15/09 Q1032
TAF LPHR 240800Z 2409/2418 VRB05KT 9999 FEW020 BKN030 
     TEMPO 2409/2418 SCT020 
     BECMG 2412/2415 25008KT
       
LPLA 241000Z 26003KT 9999 OVC030 14/10 Q1033
TAF LPLA 240525Z 2406/2506 VRB05KT SCT025 
     TEMPO 2406/2418 BKN025 
     BECMG 2418/2420 BKN018 
     PROB40 
     TEMPO 2422/2506 30010KT 6000 -RADZ SCT013 BKN016
       
LPPT 241000Z 31008KT 270V340 9999 SCT026 FEW030CB 10/05 Q1015
TAF LPPT 240500Z 2406/2512 33007KT 9999 SCT035 
     TEMPO 2406/2421 8000 SHRA BKN015 FEW025CB 
     PROB30 
     TEMPO 2412/2418 3000 TSRAGS SCT020CB 
     BECMG 2412/2415 26010KT 
     BECMG 2421/2424 15008KT SCT012 
     TEMPO 2500/2509 VRB03KT 5000 BR BKN005
       
LPMA 241000Z 01014G24KT 330V060 9999 BKN015 15/07 Q1023
TAF LPMA 240500Z 2406/2506 01013KT 9999 SCT015 
     TEMPO 2406/2418 01018G30KT BKN015 
     BECMG 2500/2503 VRB05KT
       
LPPD 241000Z 03008KT 350V070 9999 FEW022 14/08 Q1032
TAF LPPD 240500Z 2406/2506 VRB05KT 9999 FEW020 BKN035 
     TEMPO 2406/2424 SCT020 
     BECMG 2415/2418 34008KT 
     BECMG 2500/2503 SCT012 BKN025
       
LPPR 241000Z 14006KT 100V160 CAVOK 07/05 Q1014
TAF LPPR 240500Z 2406/2506 VRB03KT 9999 FEW030 
     TEMPO 2406/2418 8000 SHRA BKN015 FEW020CB 
     BECMG 2409/2412 19008KT 
     BECMG 2415/2418 09010KT 
     BECMG 2500/2503 VRB03KT
       
LPPS 241000Z 01016KT 9999 SCT015 15/07 Q1023
TAF LPPS 240500Z 2406/2512 36015KT 9999 SCT015 
     PROB30 
     TEMPO 2406/2418 36018G28KT 
     BECMG 2506/2609 27010KT
       
LPAZ 241000Z 03008KT 9999 FEW018 BKN032 14/09 Q1032
TAF LPAZ 240500Z 2406/2512 03010KT 9999 SCT025 
     TEMPO 2406/2506 FEW025 BKN035 
     BECMG 2418/2421 34010KT 
     BECMG 2506/2509 26010KT SCT012 BKN025